Time;durP1;ratioP1;P1;durP2;ratioP2;P2;SDS_P1;SDS_P2;PMS_P1;PMS_P2;Temp;Humidity;BMP_temperature;BMP_pressure;BME280_temperature;BME280_humidity;BME280_pressure;Samples;Min_cycle;Max_cycle;Signal;HPM_P1;HPM_P2
2021/09/28 00:01:13;;;;;;;;;;;;;;;12.62;97.37;98325.75;1782462;80;20159;-82
2021/09/28 00:03:38;;;;;;;;;;;;;;;12.61;97.37;98322.78;1782580;80;20176;-82
2021/09/28 00:06:03;;;;;;;;;;;;;;;12.60;98.05;98322.52;1782415;80;20167;-82
2021/09/28 00:08:29;;;;;;;;;;;;;;;12.58;97.22;98318.73;1782995;80;20151;-82
2021/09/28 00:10:55;;;;;;;;;;;;;;;12.58;97.40;98323.36;1782480;80;21081;-82
2021/09/28 00:13:21;;;;;;;;;;;;;;;12.58;96.98;98316.56;1782710;80;20179;-82
2021/09/28 00:15:47;;;;;;;;;;;;;;;12.54;99.08;98314.95;1782361;80;20210;-82
2021/09/28 00:18:12;;;;;;;;;;;;;;;12.58;98.01;98322.80;1782769;80;20155;-81
2021/09/28 00:20:39;;;;;;;;;;;;;;;12.61;99.52;98322.78;1782759;80;20204;-81
2021/09/28 00:23:06;;;;;;;;;;;;;;;12.63;99.75;98317.30;1782802;80;21880;-81
2021/09/28 00:25:32;;;;;;;;;;;;;;;12.68;98.74;98328.15;1782532;80;20172;-81
2021/09/28 00:27:58;;;;;;;;;;;;;;;12.73;99.66;98329.19;1756369;80;20155;-81
2021/09/28 00:30:23;;;;;;;;;;;;;;;12.77;99.37;98331.61;1782816;80;20131;-81
2021/09/28 00:32:49;;;;;;;;;;;;;;;12.80;98.94;98331.03;1782810;80;20167;-81
2021/09/28 00:35:15;;;;;;;;;;;;;;;12.79;99.92;98335.66;1782015;79;21937;-82
2021/09/28 00:37:41;;;;;;;;;;;;;;;12.80;100.00;98331.84;1782049;80;20171;-82
2021/09/28 00:40:07;;;;;;;;;;;;;;;12.83;99.50;98330.47;1782101;80;20182;-81
2021/09/28 00:42:33;;;;;;;;;;;;;;;12.80;99.29;98326.95;1781900;80;20160;-81
2021/09/28 00:44:59;;;;;;;;;;;;;;;12.81;98.87;98327.20;1781934;80;20214;-82
2021/09/28 00:47:24;;;;;;;;;;;;;;;12.82;98.66;98324.75;1782212;80;21763;-81
2021/09/28 00:49:50;;;;;;;;;;;;;;;12.76;98.69;98324.00;1781842;79;20170;-81
2021/09/28 00:52:17;;;;;;;;;;;;;;;12.74;99.02;98323.48;1782109;80;20166;-82
2021/09/28 00:54:44;;;;;;;;;;;;;;;12.76;99.42;98328.63;1781957;80;20420;-82
2021/09/28 00:57:09;;;;;;;;;;;;;;;12.82;98.42;98328.83;1782071;80;20187;-82
2021/09/28 00:59:36;;;;;;;;;;;;;;;12.84;98.24;98323.38;1781895;80;21138;-82
2021/09/28 01:02:03;;;;;;;;;;;;;;;12.86;97.87;98329.89;1782708;80;20104;-82
2021/09/28 01:04:29;;;;;;;;;;;;;;;12.83;98.23;98320.41;1781947;79;20141;-82
2021/09/28 01:06:55;;;;;;;;;;;;;;;12.82;96.85;98322.87;1782158;80;20135;-82
2021/09/28 01:09:20;;;;;;;;;;;;;;;12.82;97.32;98323.39;1782248;80;20139;-82
2021/09/28 01:11:46;;;;;;;;;;;;;;;12.84;97.79;98327.46;1782257;80;21078;-82
2021/09/28 01:14:12;;;;;;;;;;;;;;;12.83;97.64;98325.84;1782151;80;20199;-82
2021/09/28 01:16:38;;;;;;;;;;;;;;;12.83;97.89;98323.13;1782013;80;20226;-82
2021/09/28 01:19:04;;;;;;;;;;;;;;;12.87;97.13;98320.08;1782019;80;20574;-81
2021/09/28 01:21:29;;;;;;;;;;;;;;;12.92;96.76;98324.13;1782090;80;20175;-82
2021/09/28 01:23:55;;;;;;;;;;;;;;;13.02;96.72;98325.11;1782667;80;21147;-82
2021/09/28 01:26:24;;;;;;;;;;;;;;;13.11;96.67;98326.10;1782098;80;20246;-82
2021/09/28 01:28:51;;;;;;;;;;;;;;;13.19;97.11;98323.59;1782120;80;20128;-82
2021/09/28 01:31:17;;;;;;;;;;;;;;;13.19;97.04;98322.75;1781680;79;20204;-82
2021/09/28 01:33:43;;;;;;;;;;;;;;;13.21;96.43;98321.39;1783293;80;20133;-82
2021/09/28 01:36:09;;;;;;;;;;;;;;;13.24;95.90;98325.43;1785360;80;21103;-82
2021/09/28 01:38:34;;;;;;;;;;;;;;;13.18;95.75;98321.13;1785240;80;20282;-82
2021/09/28 01:41:00;;;;;;;;;;;;;;;13.15;95.09;98321.69;1785040;80;20690;-82
2021/09/28 01:43:26;;;;;;;;;;;;;;;13.06;97.77;98322.88;1785369;80;20151;-82
2021/09/28 01:46:00;;;;;;;;;;;;;;;13.06;98.33;98329.67;1785112;80;20162;-82
2021/09/28 01:48:29;;;;;;;;;;;;;;;13.02;98.53;98332.72;1784592;80;21140;-82
2021/09/28 01:50:55;;;;;;;;;;;;;;;13.04;98.58;98325.63;1785089;80;20154;-82
2021/09/28 01:53:21;;;;;;;;;;;;;;;13.02;98.78;98331.91;1759013;80;20246;-82
2021/09/28 01:55:47;;;;;;;;;;;;;;;13.05;98.38;98334.05;1785159;80;20139;-82
2021/09/28 01:58:14;;;;;;;;;;;;;;;13.05;98.35;98328.61;1785324;80;20183;-82
2021/09/28 02:00:40;;;;;;;;;;;;;;;13.11;97.71;98335.62;1758427;80;21205;-82
2021/09/28 02:03:06;;;;;;;;;;;;;;;13.20;97.92;98333.92;1785394;80;20232;-82
2021/09/28 02:05:32;;;;;;;;;;;;;;;13.17;98.16;98335.30;1785202;80;20186;-82
2021/09/28 02:07:58;;;;;;;;;;;;;;;13.15;98.02;98336.11;1785485;80;20174;-82
2021/09/28 02:10:24;;;;;;;;;;;;;;;13.17;97.48;98339.37;1758661;80;20147;-82
2021/09/28 02:12:50;;;;;;;;;;;;;;;13.17;97.72;98339.92;1785407;80;20642;-82
2021/09/28 02:15:16;;;;;;;;;;;;;;;13.19;98.80;98347.24;1785196;80;20125;-82
2021/09/28 02:17:42;;;;;;;;;;;;;;;13.20;97.72;98346.98;1785527;80;20198;-82
2021/09/28 02:20:08;;;;;;;;;;;;;;;13.18;97.65;98344.27;1785270;80;20552;-82
2021/09/28 02:22:34;;;;;;;;;;;;;;;13.21;97.56;98345.06;1785316;80;20085;-82
2021/09/28 02:25:00;;;;;;;;;;;;;;;13.22;97.03;98343.97;1785674;80;21102;-82
2021/09/28 02:27:26;;;;;;;;;;;;;;;13.25;96.93;98345.58;1785354;80;20233;-82
2021/09/28 02:29:51;;;;;;;;;;;;;;;13.25;97.18;98345.58;1785402;80;20194;-82
2021/09/28 02:32:17;;;;;;;;;;;;;;;13.24;96.69;98346.67;1785412;80;20171;-82
2021/09/28 02:34:43;;;;;;;;;;;;;;;13.14;97.21;98351.36;1783286;80;20652;-82
2021/09/28 02:37:11;;;;;;;;;;;;;;;13.11;96.55;98349.23;1782538;80;21148;-82
2021/09/28 02:39:39;;;;;;;;;;;;;;;13.10;96.27;98347.61;1782447;80;20125;-82
2021/09/28 02:42:04;;;;;;;;;;;;;;;13.11;96.03;98349.23;1782309;80;20153;-82
2021/09/28 02:44:30;;;;;;;;;;;;;;;13.15;96.06;98345.63;1782500;80;20137;-82
2021/09/28 02:46:56;;;;;;;;;;;;;;;13.20;95.86;98348.34;1782553;80;20143;-82
2021/09/28 02:49:22;;;;;;;;;;;;;;;13.18;96.15;98351.88;1782482;80;21067;-82
2021/09/28 02:51:47;;;;;;;;;;;;;;;13.19;95.66;98347.24;1782568;80;20166;-82
2021/09/28 02:54:13;;;;;;;;;;;;;;;13.09;96.19;98345.44;1782547;80;20249;-82
2021/09/28 02:56:39;;;;;;;;;;;;;;;12.94;96.70;98346.40;1782418;80;20234;-82
2021/09/28 02:59:05;;;;;;;;;;;;;;;12.83;97.32;98348.16;1783151;80;20167;-82
2021/09/28 03:01:30;;;;;;;;;;;;;;;12.76;97.21;98344.40;1782334;80;21077;-82
2021/09/28 03:03:56;;;;;;;;;;;;;;;12.78;97.31;98343.55;1782963;80;20190;-82
2021/09/28 03:06:22;;;;;;;;;;;;;;;12.80;96.66;98341.36;1782664;80;20175;-82
2021/09/28 03:08:47;;;;;;;;;;;;;;;12.86;96.39;98344.84;1782500;80;20171;-82
2021/09/28 03:11:13;;;;;;;;;;;;;;;12.88;96.28;98352.97;1782376;80;20182;-82
2021/09/28 03:13:39;;;;;;;;;;;;;;;12.89;96.66;98352.42;1782631;80;21767;-82
2021/09/28 03:16:05;;;;;;;;;;;;;;;12.82;96.98;98355.50;1782330;80;20174;-82
2021/09/28 03:18:31;;;;;;;;;;;;;;;12.77;96.92;98356.08;1782511;80;20427;-81
2021/09/28 03:20:56;;;;;;;;;;;;;;;12.76;96.73;98362.63;1782442;80;20131;-81
2021/09/28 03:23:22;;;;;;;;;;;;;;;12.75;96.55;98363.17;1783175;80;20222;-81
2021/09/28 03:25:48;;;;;;;;;;;;;;;12.82;96.32;98364.18;1782716;80;21080;-82
2021/09/28 03:28:16;;;;;;;;;;;;;;;12.88;96.19;98361.69;1782689;80;20166;-82
2021/09/28 03:30:41;;;;;;;;;;;;;;;12.89;96.03;98364.11;1782620;80;20207;-82
2021/09/28 03:33:07;;;;;;;;;;;;;;;12.91;95.79;98365.21;1782842;80;20143;-82
2021/09/28 03:35:33;;;;;;;;;;;;;;;12.93;95.72;98363.82;1782037;80;20144;-82
2021/09/28 03:37:59;;;;;;;;;;;;;;;12.92;96.09;98366.83;1782207;80;21113;-82
2021/09/28 03:40:29;;;;;;;;;;;;;;;12.89;95.79;98365.47;1782097;80;20194;-82
2021/09/28 03:42:52;;;;;;;;;;;;;;;12.85;95.94;98367.16;1781770;80;20140;-82
2021/09/28 03:45:18;;;;;;;;;;;;;;;12.76;97.15;98368.06;1782067;79;20144;-82
2021/09/28 03:47:44;;;;;;;;;;;;;;;12.71;97.24;98367.54;1754048;80;20163;-82
2021/09/28 03:50:10;;;;;;;;;;;;;;;12.76;96.36;98363.44;1782057;80;21059;-81
2021/09/28 03:52:35;;;;;;;;;;;;;;;12.79;96.90;98364.76;1782045;80;20198;-82
2021/09/28 03:55:01;;;;;;;;;;;;;;;12.76;96.92;98362.63;1781924;80;20182;-81
2021/09/28 03:57:27;;;;;;;;;;;;;;;12.78;96.92;98364.50;1782280;80;20147;-82
2021/09/28 03:59:55;;;;;;;;;;;;;;;12.80;96.45;98363.11;1782092;80;20172;-82
2021/09/28 04:02:21;;;;;;;;;;;;;;;12.88;96.23;98361.69;1754248;80;21967;-82
2021/09/28 04:04:47;;;;;;;;;;;;;;;12.92;95.91;98369.55;1753493;80;20726;-82
2021/09/28 04:07:13;;;;;;;;;;;;;;;12.97;95.61;98365.41;1782141;80;20222;-82
2021/09/28 04:09:39;;;;;;;;;;;;;;;12.97;95.31;98368.93;1781953;80;20132;-82
2021/09/28 04:12:06;;;;;;;;;;;;;;;12.98;95.07;98373.27;1782021;80;20151;-82
2021/09/28 04:14:32;;;;;;;;;;;;;;;12.99;95.09;98380.91;1782692;80;21054;-82
2021/09/28 04:16:58;;;;;;;;;;;;;;;12.92;94.85;98375.80;1781818;79;20187;-82
2021/09/28 04:19:23;;;;;;;;;;;;;;;12.86;94.85;98380.20;1782176;80;20198;-81
2021/09/28 04:21:49;;;;;;;;;;;;;;;12.79;94.66;98385.16;1753655;80;20183;-81
2021/09/28 04:24:15;;;;;;;;;;;;;;;12.76;94.79;98386.55;1782106;80;20731;-81
2021/09/28 04:26:40;;;;;;;;;;;;;;;12.77;94.69;98384.63;1753668;80;21053;-82
2021/09/28 04:29:06;;;;;;;;;;;;;;;12.74;95.16;98383.86;1782385;80;20174;-82
2021/09/28 04:31:32;;;;;;;;;;;;;;;12.77;94.96;98384.63;1781825;80;20187;-82
2021/09/28 04:33:58;;;;;;;;;;;;;;;12.73;95.43;98380.84;1782370;80;20222;-82
2021/09/28 04:36:24;;;;;;;;;;;;;;;12.62;95.91;98378.77;1785079;80;20215;-82
2021/09/28 04:38:50;;;;;;;;;;;;;;;12.60;95.57;98383.13;1785572;80;21118;-82
2021/09/28 04:41:16;;;;;;;;;;;;;;;12.64;95.64;98385.53;1785087;80;20242;-81
2021/09/28 04:43:42;;;;;;;;;;;;;;;12.68;95.88;98381.72;1759218;80;20235;-82
2021/09/28 04:46:07;;;;;;;;;;;;;;;12.68;95.34;98386.60;1785117;80;20663;-81
2021/09/28 04:48:33;;;;;;;;;;;;;;;12.70;95.14;98392.56;1785441;80;20242;-82
2021/09/28 04:50:59;;;;;;;;;;;;;;;12.72;94.98;98389.55;1785150;80;21137;-82
2021/09/28 04:53:25;;;;;;;;;;;;;;;12.72;94.84;98390.91;1785315;80;20279;-81
2021/09/28 04:55:57;;;;;;;;;;;;;;;12.72;94.76;98390.91;1785194;80;20191;-82
2021/09/28 04:58:24;;;;;;;;;;;;;;;12.74;94.67;98394.73;1785361;80;20578;-82
2021/09/28 05:00:50;;;;;;;;;;;;;;;12.71;94.93;98398.26;1785137;80;20187;-81
2021/09/28 05:03:15;;;;;;;;;;;;;;;12.62;95.94;98391.80;1785379;80;21050;-81
2021/09/28 05:05:41;;;;;;;;;;;;;;;12.59;95.72;98395.66;1785255;80;20190;-82
2021/09/28 05:08:07;;;;;;;;;;;;;;;12.54;94.84;98401.12;1785834;80;20226;-81
2021/09/28 05:10:33;;;;;;;;;;;;;;;12.51;96.27;98394.34;1785297;80;20139;-82
2021/09/28 05:12:58;;;;;;;;;;;;;;;12.53;95.23;98401.66;1785495;80;20190;-82
2021/09/28 05:15:24;;;;;;;;;;;;;;;12.55;95.13;98407.63;1785159;80;21144;-82
2021/09/28 05:17:50;;;;;;;;;;;;;;;12.59;95.16;98405.17;1785369;80;20276;-82
2021/09/28 05:20:16;;;;;;;;;;;;;;;12.61;95.84;98411.94;1758920;80;20210;-82
2021/09/28 05:22:42;;;;;;;;;;;;;;;12.66;95.40;98413.82;1785459;80;20532;-82
2021/09/28 05:25:08;;;;;;;;;;;;;;;12.64;96.00;98415.44;1785432;80;20135;-82
2021/09/28 05:27:33;;;;;;;;;;;;;;;12.69;95.64;98414.60;1785457;80;21043;-82
2021/09/28 05:29:59;;;;;;;;;;;;;;;12.76;95.50;98414.28;1785246;80;20206;-82
2021/09/28 05:32:25;;;;;;;;;;;;;;;12.81;96.32;98408.79;1785237;80;20651;-82
2021/09/28 05:34:51;;;;;;;;;;;;;;;12.84;96.81;98415.84;1784774;80;20206;-81
2021/09/28 05:37:16;;;;;;;;;;;;;;;12.83;96.54;98411.51;1781871;79;20143;-82
2021/09/28 05:39:42;;;;;;;;;;;;;;;12.87;95.65;98409.02;1781934;80;21115;-82
2021/09/28 05:42:08;;;;;;;;;;;;;;;12.97;95.46;98418.44;1781796;79;20202;-82
2021/09/28 05:44:34;;;;;;;;;;;;;;;13.03;95.58;98415.95;1782064;80;20251;-82
2021/09/28 05:46:59;;;;;;;;;;;;;;;13.05;95.25;98415.66;1782055;79;20175;-82
2021/09/28 05:49:25;;;;;;;;;;;;;;;13.09;94.94;98420.26;1782189;80;20183;-82
2021/09/28 05:51:55;;;;;;;;;;;;;;;13.14;94.82;98422.91;1781806;79;21037;-82
2021/09/28 05:54:21;;;;;;;;;;;;;;;13.16;95.07;98423.46;1781924;80;20125;-82
2021/09/28 05:56:48;;;;;;;;;;;;;;;13.14;94.83;98426.19;1781850;79;20140;-82
2021/09/28 05:59:14;;;;;;;;;;;;;;;13.10;95.20;98428.68;1782227;80;20168;-82
2021/09/28 06:01:39;;;;;;;;;;;;;;;13.03;95.10;98432.83;1781904;80;20782;-82
2021/09/28 06:04:05;;;;;;;;;;;;;;;13.07;94.86;98433.31;1782031;80;21093;-82
2021/09/28 06:06:31;;;;;;;;;;;;;;;12.98;95.65;98441.27;1781757;80;20170;-82
2021/09/28 06:08:57;;;;;;;;;;;;;;;12.96;95.38;98432.59;1782547;80;20222;-82
2021/09/28 06:11:23;;;;;;;;;;;;;;;12.98;95.67;98439.11;1781882;79;20161;-82
2021/09/28 06:13:49;;;;;;;;;;;;;;;12.88;95.50;98434.56;1782244;80;20254;-82
2021/09/28 06:16:15;;;;;;;;;;;;;;;12.96;95.30;98439.39;1781652;80;21044;-82
2021/09/28 06:18:41;;;;;;;;;;;;;;;12.96;95.14;98441.30;1782224;80;20761;-82
2021/09/28 06:21:10;;;;;;;;;;;;;;;13.02;95.23;98440.73;1781667;80;20166;-82
2021/09/28 06:23:36;;;;;;;;;;;;;;;13.02;95.44;98447.52;1782074;80;20195;-82
2021/09/28 06:26:03;;;;;;;;;;;;;;;13.04;95.07;98448.86;1781879;79;20165;-82
2021/09/28 06:28:29;;;;;;;;;;;;;;;12.99;95.19;98459.25;1782032;80;21787;-82
2021/09/28 06:30:55;;;;;;;;;;;;;;;12.91;95.54;98460.41;1781983;80;20082;-82
2021/09/28 06:33:21;;;;;;;;;;;;;;;12.94;94.77;98462.55;1782756;80;20211;-81
2021/09/28 06:35:47;;;;;;;;;;;;;;;12.94;95.00;98464.72;1783212;79;20155;-82
2021/09/28 06:38:13;;;;;;;;;;;;;;;12.97;95.03;98460.61;1785402;80;20160;-82
2021/09/28 06:40:38;;;;;;;;;;;;;;;13.06;94.90;98466.25;1785077;80;21018;-82
2021/09/28 06:43:04;;;;;;;;;;;;;;;13.13;95.19;98468.09;1785331;80;20320;-82
2021/09/28 06:45:30;;;;;;;;;;;;;;;13.20;95.04;98465.89;1785201;79;20602;-81
2021/09/28 06:47:56;;;;;;;;;;;;;;;13.24;94.55;98469.13;1785291;80;20218;-82
2021/09/28 06:50:22;;;;;;;;;;;;;;;13.15;94.87;98468.06;1785101;80;20180;-82
2021/09/28 06:52:48;;;;;;;;;;;;;;;13.13;94.52;98470.81;1785026;80;21099;-82
2021/09/28 06:55:14;;;;;;;;;;;;;;;13.20;94.33;98469.98;1785082;80;20156;-82
2021/09/28 06:57:40;;;;;;;;;;;;;;;13.19;94.44;98473.25;1758954;80;20141;-81
2021/09/28 07:00:06;;;;;;;;;;;;;;;13.23;94.35;98470.75;1785252;80;20174;-82
2021/09/28 07:02:32;;;;;;;;;;;;;;;13.34;94.54;98476.94;1785164;80;20207;-81
2021/09/28 07:04:58;;;;;;;;;;;;;;;13.19;94.25;98474.61;1785275;80;21061;-82
2021/09/28 07:07:25;;;;;;;;;;;;;;;13.21;94.38;98476.48;1785030;80;20167;-82
2021/09/28 07:09:51;;;;;;;;;;;;;;;13.20;94.59;98478.95;1785389;80;20141;-82
2021/09/28 07:12:17;;;;;;;;;;;;;;;13.33;94.20;98478.85;1785347;80;20137;-82
2021/09/28 07:14:42;;;;;;;;;;;;;;;13.46;94.01;98476.00;1785311;80;20167;-82
2021/09/28 07:17:08;;;;;;;;;;;;;;;13.51;93.38;98480.05;1785187;80;21163;-82
2021/09/28 07:19:34;;;;;;;;;;;;;;;13.49;93.33;98483.03;1785152;80;20718;-82
2021/09/28 07:22:00;;;;;;;;;;;;;;;13.48;93.34;98491.48;1785115;79;20226;-82
2021/09/28 07:24:25;;;;;;;;;;;;;;;13.43;93.00;98484.75;1785264;80;20191;-82
2021/09/28 07:26:51;;;;;;;;;;;;;;;13.51;93.09;98489.57;1785618;80;20167;-82
2021/09/28 07:29:17;;;;;;;;;;;;;;;13.59;92.87;98489.47;1785795;80;21045;-82
2021/09/28 07:31:43;;;;;;;;;;;;;;;13.59;92.65;98494.91;1785051;80;20234;-81
2021/09/28 07:34:09;;;;;;;;;;;;;;;13.66;92.76;98496.20;1785650;80;20620;-81
2021/09/28 07:36:35;;;;;;;;;;;;;;;13.72;92.46;98501.05;1783138;80;20133;-82
2021/09/28 07:39:02;;;;;;;;;;;;;;;13.71;92.22;98504.33;1782550;80;20151;-82
2021/09/28 07:41:28;;;;;;;;;;;;;;;13.83;92.60;98509.38;1782612;80;21053;-82
2021/09/28 07:43:54;;;;;;;;;;;;;;;13.85;91.93;98510.47;1782575;80;20210;-82
2021/09/28 07:46:20;;;;;;;;;;;;;;;13.83;91.84;98515.63;1782539;80;20155;-82
2021/09/28 07:48:45;;;;;;;;;;;;;;;13.86;91.43;98513.45;1782630;80;20190;-82
2021/09/28 07:51:12;;;;;;;;;;;;;;;13.88;91.39;98518.05;1782207;80;20675;-81
2021/09/28 07:53:38;;;;;;;;;;;;;;;13.91;91.39;98518.83;1782488;80;21126;-82
2021/09/28 07:56:04;;;;;;;;;;;;;;;13.90;90.61;98519.93;1782241;80;20273;-82
2021/09/28 07:58:30;;;;;;;;;;;;;;;14.00;91.00;98519.81;1756265;80;20467;-82
2021/09/28 08:00:56;;;;;;;;;;;;;;;14.05;91.12;98531.48;1782288;80;20199;-82
2021/09/28 08:03:21;;;;;;;;;;;;;;;14.11;91.08;98530.33;1782757;80;20743;-82
2021/09/28 08:05:49;;;;;;;;;;;;;;;13.89;90.24;98530.02;1782352;80;21740;-82
2021/09/28 08:08:15;;;;;;;;;;;;;;;13.88;89.83;98530.31;1782853;80;20133;-81
2021/09/28 08:10:40;;;;;;;;;;;;;;;13.57;89.93;98529.79;1782436;80;20187;-82
2021/09/28 08:13:06;;;;;;;;;;;;;;;13.56;90.14;98535.78;1782489;80;20163;-82
2021/09/28 08:15:35;;;;;;;;;;;;;;;13.72;90.02;98535.91;1756247;80;20186;-82
2021/09/28 08:18:01;;;;;;;;;;;;;;;13.88;89.52;98534.39;1782486;80;21134;-82
2021/09/28 08:20:26;;;;;;;;;;;;;;;14.05;89.04;98536.92;1782436;80;20167;-82
2021/09/28 08:22:52;;;;;;;;;;;;;;;14.30;88.87;98540.46;1782478;80;20772;-82
2021/09/28 08:25:21;;;;;;;;;;;;;;;14.50;88.03;98533.97;1782495;80;20131;-82
2021/09/28 08:30:30;;;;;;;;;;;;;;;14.92;86.58;98541.30;1782635;80;20987;-82
2021/09/28 08:32:56;;;;;;;;;;;;;;;14.84;85.34;98542.77;1782391;80;20176;-82
2021/09/28 08:35:22;;;;;;;;;;;;;;;14.89;84.95;98544.06;1756099;80;20175;-82
2021/09/28 08:37:47;;;;;;;;;;;;;;;14.83;84.58;98541.14;1782533;80;20147;-82
2021/09/28 08:40:14;;;;;;;;;;;;;;;14.90;85.74;98542.15;1782644;80;20167;-82
2021/09/28 08:42:40;;;;;;;;;;;;;;;14.90;83.98;98548.97;1782524;80;21891;-82
2021/09/28 08:45:07;;;;;;;;;;;;;;;14.95;83.06;98550.25;1782474;80;20141;-82
2021/09/28 08:47:35;;;;;;;;;;;;;;;15.21;82.98;98541.12;1782409;80;20136;-82
2021/09/28 08:50:01;;;;;;;;;;;;;;;15.45;84.18;98543.73;1782573;80;20152;-82
2021/09/28 08:52:27;;;;;;;;;;;;;;;15.66;83.72;98545.62;1782681;80;20136;-82
2021/09/28 08:54:53;;;;;;;;;;;;;;;15.80;80.94;98540.97;1782463;80;21832;-82
2021/09/28 08:57:19;;;;;;;;;;;;;;;15.69;81.32;98538.98;1782762;80;20210;-82
2021/09/28 08:59:57;;;;;;;;;;;;;;;15.79;81.83;98537.43;1782736;80;20145;-82
2021/09/28 09:02:14;;;;;;;;;;;;;;;15.86;82.97;98545.23;1780712;80;20154;-82
2021/09/28 09:04:40;;;;;;;;;;;;;;;15.95;83.24;98537.96;1782580;80;20141;-82
2021/09/28 09:07:25;;;;;;;;;;;;;;;16.10;82.24;98541.53;1782589;80;21079;-82
2021/09/28 09:09:51;;;;;;;;;;;;;;;15.98;79.87;98548.84;1782450;80;20175;-82
2021/09/28 09:12:34;;;;;;;;;;;;;;;16.12;80.91;98544.20;1782502;80;20167;-82
2021/09/28 09:15:22;;;;;;;;;;;;;;;16.13;80.61;98545.02;1783026;80;20164;-82
2021/09/28 09:17:49;;;;;;;;;;;;;;;16.11;80.17;98546.69;1782516;80;20410;-82
2021/09/28 09:20:22;;;;;;;;;;;;;;;15.97;77.59;98545.86;1783103;80;21138;-82
2021/09/28 09:22:48;;;;;;;;;;;;;;;16.19;79.07;98538.34;1781678;80;20124;-82
2021/09/28 09:25:24;;;;;;;;;;;;;;;16.35;77.55;98545.13;1782975;80;20183;-82
2021/09/28 09:27:50;;;;;;;;;;;;;;;16.55;78.63;98545.25;1756131;80;20152;-82
2021/09/28 09:30:21;;;;;;;;;;;;;;;16.64;78.73;98537.94;1782417;80;20211;-81
2021/09/28 09:32:55;;;;;;;;;;;;;;;16.48;76.95;98543.48;1782481;80;21220;-81
2021/09/28 09:35:33;;;;;;;;;;;;;;;16.53;77.30;98548.30;1782454;80;20192;-82
2021/09/28 09:38:08;;;;;;;;;;;;;;;16.65;77.59;98546.40;1781838;80;20149;-82
2021/09/28 09:40:43;;;;;;;;;;;;;;;16.72;77.37;98550.12;1781959;80;20553;-82
2021/09/28 09:43:10;;;;;;;;;;;;;;;16.38;75.07;98546.43;1781830;80;20156;-81
2021/09/28 09:45:36;;;;;;;;;;;;;;;16.39;76.37;98544.75;1782000;80;21065;-82
2021/09/28 09:48:25;;;;;;;;;;;;;;;16.44;76.19;98546.59;1781812;80;20253;-82
2021/09/28 09:50:58;;;;;;;;;;;;;;;16.49;77.12;98545.09;1781763;80;20164;-82
2021/09/28 09:53:24;;;;;;;;;;;;;;;16.18;76.40;98547.66;1753623;80;20128;-81
2021/09/28 09:55:49;;;;;;;;;;;;;;;15.94;76.91;98548.64;1781897;80;20175;-82
2021/09/28 09:58:15;;;;;;;;;;;;;;;16.03;77.15;98540.55;1781826;80;21065;-82
2021/09/28 10:01:30;;;;;;;;;;;;;;;16.06;78.02;98533.95;1754634;80;20093;-81
2021/09/28 10:04:37;;;;;;;;;;;;;;;15.77;76.64;98542.39;1776751;80;20377;-81
2021/09/28 10:16:53;;;;;;;;;;;;;;;15.91;77.84;98547.08;1643246;83;20139;-64
2021/09/28 10:19:34;;;;;;;;;;;;;;;16.10;77.23;98545.63;1706433;83;20164;-76
2021/09/28 10:21:59;;;;;;;;;;;;;;;16.21;77.09;98547.84;1755496;80;20161;-77
2021/09/28 10:24:28;;;;;;;;;;;;;;;16.26;76.64;98548.32;1764261;80;20195;-76
2021/09/28 10:27:04;;;;;;;;;;;;;;;16.25;75.50;98544.78;1764955;80;21137;-82
2021/09/28 10:29:52;;;;;;;;;;;;;;;16.28;74.71;98548.27;1776397;80;20184;-80
2021/09/28 10:32:34;;;;;;;;;;;;;;;16.27;76.00;98543.10;1746867;80;20196;-80
2021/09/28 10:35:09;;;;;;;;;;;;;;;16.27;74.94;98543.10;1740871;80;20189;-81
2021/09/28 10:37:52;;;;;;;;;;;;;;;16.24;76.01;98538.25;1747700;80;20170;-81
2021/09/28 10:40:21;;;;;;;;;;;;;;;16.21;75.59;98556.61;1771054;81;21047;-82
2021/09/28 10:43:03;;;;;;;;;;;;;;;15.97;75.11;98559.52;1778008;80;20203;-83
2021/09/28 10:45:33;;;;;;;;;;;;;;;16.01;76.00;98550.98;1777798;80;20609;-81
2021/09/28 10:48:07;;;;;;;;;;;;;;;15.89;75.68;98556.92;1777660;80;20357;-81
2021/09/28 10:50:41;;;;;;;;;;;;;;;15.90;75.08;98555.84;1757121;80;20434;-82
2021/09/28 10:53:22;;;;;;;;;;;;;;;16.02;75.44;98558.88;1763063;81;21017;-82
2021/09/28 10:55:57;;;;;;;;;;;;;;;16.04;75.34;98559.38;1762780;81;20189;-81
2021/09/28 10:58:23;;;;;;;;;;;;;;;16.08;75.40;98558.23;1763580;81;20481;-83
2021/09/28 11:00:53;;;;;;;;;;;;;;;16.01;75.56;98557.82;1765227;81;20177;-82
2021/09/28 11:03:56;;;;;;;;;;;;;;;16.10;74.71;98559.30;1764935;80;20218;-83
2021/09/28 11:06:55;;;;;;;;;;;;;;;16.17;75.36;98567.36;1772715;80;21127;-82
2021/09/28 11:09:23;;;;;;;;;;;;;;;16.32;75.63;98564.86;1752534;82;20456;-83
2021/09/28 11:11:51;;;;;;;;;;;;;;;16.29;74.93;98558.64;1753527;82;20230;-83
2021/09/28 11:14:17;;;;;;;;;;;;;;;16.22;74.53;98558.23;1754518;82;20489;-82
2021/09/28 11:16:45;;;;;;;;;;;;;;;16.28;73.99;98565.23;1754376;81;20204;-83
2021/09/28 11:19:11;;;;;;;;;;;;;;;16.40;74.07;98564.70;1756206;81;21232;-83
2021/09/28 11:21:42;;;;;;;;;;;;;;;16.50;74.15;98561.79;1756055;81;20204;-84
2021/09/28 11:24:10;;;;;;;;;;;;;;;16.52;73.18;98560.92;1754188;81;20185;-82
2021/09/28 11:26:38;;;;;;;;;;;;;;;16.36;71.88;98559.05;1754499;81;20488;-83
2021/09/28 11:29:05;;;;;;;;;;;;;;;16.30;72.50;98558.89;1754437;81;20218;-83
2021/09/28 11:31:32;;;;;;;;;;;;;;;16.41;72.87;98555.38;1727847;82;21075;-82
2021/09/28 11:34:00;;;;;;;;;;;;;;;16.44;72.66;98554.23;1786418;80;20161;-83
2021/09/28 11:36:34;;;;;;;;;;;;;;;16.47;73.55;98545.41;1755781;81;20166;-83
2021/09/28 11:39:00;;;;;;;;;;;;;;;16.48;72.12;98555.80;1756635;81;20163;-83
2021/09/28 11:41:26;;;;;;;;;;;;;;;16.56;71.85;98555.08;1756646;81;20185;-82
2021/09/28 11:43:59;;;;;;;;;;;;;;;16.71;72.13;98543.03;1785770;80;21057;-82
2021/09/28 11:46:27;;;;;;;;;;;;;;;16.64;71.14;98545.59;1786406;80;20088;-82
2021/09/28 11:48:58;;;;;;;;;;;;;;;16.71;71.42;98533.45;1785755;80;20420;-82
2021/09/28 11:51:26;;;;;;;;;;;;;;;16.82;71.88;98536.21;1761894;80;20466;-82
2021/09/28 11:53:59;;;;;;;;;;;;;;;16.94;70.24;98533.77;1786248;80;20176;-83
2021/09/28 11:56:31;;;;;;;;;;;;;;;17.11;69.55;98535.28;1761776;80;21277;-82
2021/09/28 11:58:57;;;;;;;;;;;;;;;17.06;67.40;98535.38;1785049;80;20227;-83
2021/09/28 12:01:23;;;;;;;;;;;;;;;17.28;69.81;98532.43;1785939;80;20171;-84
2021/09/28 12:05:03;;;;;;;;;;;;;;;17.27;66.71;98532.98;1786198;80;20136;-84
2021/09/28 12:06:58;;;;;;;;;;;;;;;17.42;66.18;98535.89;1766134;80;20141;-82
2021/09/28 12:09:15;;;;;;;;;;;;;;;17.43;64.70;98536.98;1761565;80;21307;-83
2021/09/28 12:12:03;;;;;;;;;;;;;;;17.34;63.42;98545.66;1785882;80;20202;-83
2021/09/28 12:14:35;;;;;;;;;;;;;;;17.20;62.72;98547.11;1783709;80;20141;-83
2021/09/28 12:17:16;;;;;;;;;;;;;;;17.39;64.61;98542.81;1787555;80;20633;-83
2021/09/28 12:19:51;;;;;;;;;;;;;;;17.57;65.15;98539.63;1787363;80;20168;-83
2021/09/28 12:22:49;;;;;;;;;;;;;;;17.47;63.65;98540.70;1731001;81;21134;-84
2021/09/28 12:25:22;;;;;;;;;;;;;;;17.51;62.42;98546.91;1757003;81;20134;-83
2021/09/28 12:27:57;;;;;;;;;;;;;;;17.44;63.48;98552.84;1756660;81;20426;-83
2021/09/28 12:30:24;;;;;;;;;;;;;;;16.97;62.81;98552.30;1756493;81;20135;-84
2021/09/28 12:32:50;;;;;;;;;;;;;;;16.84;63.50;98550.42;1756715;81;20182;-84
2021/09/28 12:35:25;;;;;;;;;;;;;;;16.87;64.11;98553.34;1756562;81;21115;-84
2021/09/28 12:37:56;;;;;;;;;;;;;;;16.96;65.15;98548.51;1756599;81;20150;-84
2021/09/28 12:40:22;;;;;;;;;;;;;;;16.98;65.14;98552.55;1755950;81;20391;-83
2021/09/28 12:42:52;;;;;;;;;;;;;;;16.87;65.39;98543.77;1757167;81;20135;-82
2021/09/28 12:45:17;;;;;;;;;;;;;;;16.86;65.85;98555.83;1752411;82;20445;-83
2021/09/28 12:47:45;;;;;;;;;;;;;;;16.56;65.53;98562.72;1787848;80;21763;-84
2021/09/28 12:50:27;;;;;;;;;;;;;;;16.59;66.17;98566.23;1787657;80;20141;-84
2021/09/28 12:53:05;;;;;;;;;;;;;;;16.20;66.79;98566.73;1788165;80;20156;-82
2021/09/28 12:55:36;;;;;;;;;;;;;;;16.22;67.75;98573.27;1761062;80;20660;-82
2021/09/28 12:57:59;;;;;;;;;;;;;;;16.05;67.27;98580.69;1756008;81;20410;-82
2021/09/28 13:00:25;;;;;;;;;;;;;;;15.96;67.76;98581.94;1754850;82;21078;-83
2021/09/28 13:02:51;;;;;;;;;;;;;;;15.93;68.76;98590.75;1787638;80;20178;-83
2021/09/28 13:05:21;;;;;;;;;;;;;;;15.79;68.55;98594.00;1756720;81;20264;-83